Strona główna
METAR-TAF:

METAR-TAF

Lotnisko :

Albert, Francja

Szerokość geograficzna: 49-58-21N, Długość geograficzna: 002-41-29E, wysokość: 111 m

Aktualna obserwacja pogody

Raport powstał 14 minut temu, godzina 00:30 UTC
Wiatr 9 kt od zachodnio-południowy zachód
Temperatura 7°C
Wilgotność 93%
Ciśnienie 1019 hPa
Widzialność 10 km lub więcej
Brak chmur poniżej 1500 m i brak chmur cumulonimbus

METAR: LFAQ 240030Z AUTO 24009KT CAVOK 07/06 Q1019

czas: 02:44 (00:44 UTC)

Prognoza

Raport powstał 10 godziny i 44 minut temu, godzina 14:00 UTC
Prognoza ważna od 23 godzina 15 UTC do 23 godzina 24 UTC
Wiatr 12 kt od zachód
Widzialność 10 km lub więcej
Rozproszone chmury na wysokości 3000 ft

TAF: LFAQ 231400Z 2315/2324 28012KT 9999 SCT030

Obserwacja i prognoza pogody dla ponad 4000 lotnisk (raport METAR i TAF).

Dostępne stacje oznaczono żółtymi i czerwonymi punktami na mapie.

Najedź kursorem aby zobaczyć nazwę stacji.

Kliknij aby zobaczyć obserwacje i prognozy pogody.

Aby zmienić mapę: kliknij na zielony przycisk z czarnym krzyżykiem, aby powiększyć; na zielony przycisk z myślnikiem, aby pomniejszyć; na zielone strzałki, aby przejść do map sąsiednich.


METAR-TAF: